sensor_id;sensor_type;location;lat;lon;timestamp;temperature;humidity
22185;DHT22;11258;52.516;13.318;2023-08-06T00:02:21;18.60;99.90
22185;DHT22;11258;52.516;13.318;2023-08-06T00:04:47;18.60;99.90
22185;DHT22;11258;52.516;13.318;2023-08-06T00:07:12;18.60;99.90
22185;DHT22;11258;52.516;13.318;2023-08-06T00:09:38;18.70;99.90
22185;DHT22;11258;52.516;13.318;2023-08-06T00:12:04;18.60;99.90
22185;DHT22;11258;52.516;13.318;2023-08-06T00:14:30;18.60;99.90
22185;DHT22;11258;52.516;13.318;2023-08-06T00:16:55;18.70;99.90
22185;DHT22;11258;52.516;13.318;2023-08-06T00:19:21;18.60;99.90
22185;DHT22;11258;52.516;13.318;2023-08-06T00:21:46;18.60;99.90
22185;DHT22;11258;52.516;13.318;2023-08-06T00:24:12;18.50;99.90
22185;DHT22;11258;52.516;13.318;2023-08-06T00:26:38;18.50;99.90
22185;DHT22;11258;52.516;13.318;2023-08-06T00:29:03;18.40;99.90
22185;DHT22;11258;52.516;13.318;2023-08-06T00:31:29;18.40;99.90
22185;DHT22;11258;52.516;13.318;2023-08-06T00:33:55;18.40;99.90
22185;DHT22;11258;52.516;13.318;2023-08-06T00:36:20;18.30;99.90
22185;DHT22;11258;52.516;13.318;2023-08-06T00:38:46;18.30;99.90
22185;DHT22;11258;52.516;13.318;2023-08-06T00:41:11;18.40;99.90
22185;DHT22;11258;52.516;13.318;2023-08-06T00:43:37;18.40;99.90
22185;DHT22;11258;52.516;13.318;2023-08-06T00:46:03;18.40;99.90
22185;DHT22;11258;52.516;13.318;2023-08-06T00:48:28;18.30;99.90
22185;DHT22;11258;52.516;13.318;2023-08-06T00:50:54;18.20;99.90
22185;DHT22;11258;52.516;13.318;2023-08-06T00:53:20;18.20;99.90
22185;DHT22;11258;52.516;13.318;2023-08-06T00:55:46;18.20;99.90
22185;DHT22;11258;52.516;13.318;2023-08-06T00:58:14;18.20;99.90
22185;DHT22;11258;52.516;13.318;2023-08-06T01:00:40;18.20;99.90
22185;DHT22;11258;52.516;13.318;2023-08-06T01:03:06;18.30;99.90
22185;DHT22;11258;52.516;13.318;2023-08-06T01:05:32;18.30;99.90
22185;DHT22;11258;52.516;13.318;2023-08-06T01:13:34;18.10;99.90
22185;DHT22;11258;52.516;13.318;2023-08-06T01:16:03;18.10;99.90
22185;DHT22;11258;52.516;13.318;2023-08-06T01:18:31;18.20;99.90
22185;DHT22;11258;52.516;13.318;2023-08-06T01:20:57;18.10;99.90
22185;DHT22;11258;52.516;13.318;2023-08-06T01:23:22;18.10;99.90
22185;DHT22;11258;52.516;13.318;2023-08-06T01:28:46;18.00;99.90
22185;DHT22;11258;52.516;13.318;2023-08-06T01:31:26;18.10;99.90
22185;DHT22;11258;52.516;13.318;2023-08-06T01:33:53;18.10;99.90
22185;DHT22;11258;52.516;13.318;2023-08-06T01:36:20;18.00;99.90
22185;DHT22;11258;52.516;13.318;2023-08-06T01:38:46;18.00;99.90
22185;DHT22;11258;52.516;13.318;2023-08-06T01:41:11;17.90;99.90
22185;DHT22;11258;52.516;13.318;2023-08-06T01:43:37;17.90;99.90
22185;DHT22;11258;52.516;13.318;2023-08-06T01:46:03;17.90;99.90
22185;DHT22;11258;52.516;13.318;2023-08-06T01:48:28;17.80;99.90
22185;DHT22;11258;52.516;13.318;2023-08-06T01:50:54;17.90;99.90
22185;DHT22;11258;52.516;13.318;2023-08-06T01:53:19;17.80;99.90
22185;DHT22;11258;52.516;13.318;2023-08-06T01:55:51;17.80;99.90
22185;DHT22;11258;52.516;13.318;2023-08-06T01:58:16;17.80;99.90
22185;DHT22;11258;52.516;13.318;2023-08-06T02:00:42;17.80;99.90
22185;DHT22;11258;52.516;13.318;2023-08-06T02:03:08;17.80;99.90
22185;DHT22;11258;52.516;13.318;2023-08-06T02:05:33;17.90;99.90
22185;DHT22;11258;52.516;13.318;2023-08-06T02:07:59;17.90;99.90
22185;DHT22;11258;52.516;13.318;2023-08-06T02:10:24;17.90;99.90
22185;DHT22;11258;52.516;13.318;2023-08-06T02:12:50;17.80;99.90
22185;DHT22;11258;52.516;13.318;2023-08-06T02:15:16;17.80;99.90
22185;DHT22;11258;52.516;13.318;2023-08-06T02:17:41;17.80;99.90
22185;DHT22;11258;52.516;13.318;2023-08-06T02:20:07;17.80;99.90
22185;DHT22;11258;52.516;13.318;2023-08-06T02:22:33;17.80;99.90
22185;DHT22;11258;52.516;13.318;2023-08-06T02:24:59;17.80;99.90
22185;DHT22;11258;52.516;13.318;2023-08-06T02:27:24;17.70;99.90
22185;DHT22;11258;52.516;13.318;2023-08-06T02:29:50;17.80;99.90
22185;DHT22;11258;52.516;13.318;2023-08-06T02:32:16;17.80;99.90
22185;DHT22;11258;52.516;13.318;2023-08-06T02:34:41;17.70;99.90
22185;DHT22;11258;52.516;13.318;2023-08-06T02:37:07;17.60;99.90
22185;DHT22;11258;52.516;13.318;2023-08-06T02:39:33;17.60;99.90
22185;DHT22;11258;52.516;13.318;2023-08-06T02:41:59;17.60;99.90
22185;DHT22;11258;52.516;13.318;2023-08-06T02:44:28;17.70;99.90
22185;DHT22;11258;52.516;13.318;2023-08-06T02:46:53;17.70;99.90
22185;DHT22;11258;52.516;13.318;2023-08-06T02:49:19;17.70;99.90
22185;DHT22;11258;52.516;13.318;2023-08-06T02:51:45;17.70;99.90
22185;DHT22;11258;52.516;13.318;2023-08-06T02:54:11;17.70;99.90
22185;DHT22;11258;52.516;13.318;2023-08-06T02:56:36;17.70;99.90
22185;DHT22;11258;52.516;13.318;2023-08-06T02:59:03;17.70;99.90
22185;DHT22;11258;52.516;13.318;2023-08-06T03:01:28;17.80;99.90
22185;DHT22;11258;52.516;13.318;2023-08-06T03:03:54;17.70;99.90
22185;DHT22;11258;52.516;13.318;2023-08-06T03:06:20;17.70;99.90
22185;DHT22;11258;52.516;13.318;2023-08-06T03:08:45;17.60;99.90
22185;DHT22;11258;52.516;13.318;2023-08-06T03:11:11;17.60;99.90
22185;DHT22;11258;52.516;13.318;2023-08-06T03:13:37;17.60;99.90
22185;DHT22;11258;52.516;13.318;2023-08-06T03:16:02;17.70;99.90
22185;DHT22;11258;52.516;13.318;2023-08-06T03:18:28;17.70;99.90
22185;DHT22;11258;52.516;13.318;2023-08-06T03:20:54;17.60;99.90
22185;DHT22;11258;52.516;13.318;2023-08-06T03:23:20;17.60;99.90
22185;DHT22;11258;52.516;13.318;2023-08-06T03:25:46;17.50;99.90
22185;DHT22;11258;52.516;13.318;2023-08-06T03:28:12;17.50;99.90
22185;DHT22;11258;52.516;13.318;2023-08-06T03:30:38;17.40;99.90
22185;DHT22;11258;52.516;13.318;2023-08-06T03:33:03;17.30;99.90
22185;DHT22;11258;52.516;13.318;2023-08-06T03:35:29;17.30;99.90
22185;DHT22;11258;52.516;13.318;2023-08-06T03:37:55;17.20;99.90
22185;DHT22;11258;52.516;13.318;2023-08-06T03:40:21;17.20;99.90
22185;DHT22;11258;52.516;13.318;2023-08-06T03:42:46;17.20;99.90
22185;DHT22;11258;52.516;13.318;2023-08-06T03:45:12;17.20;99.90
22185;DHT22;11258;52.516;13.318;2023-08-06T03:47:38;17.00;99.90
22185;DHT22;11258;52.516;13.318;2023-08-06T03:50:04;17.10;99.90
22185;DHT22;11258;52.516;13.318;2023-08-06T03:52:29;17.10;99.90
22185;DHT22;11258;52.516;13.318;2023-08-06T03:54:55;17.10;99.90
22185;DHT22;11258;52.516;13.318;2023-08-06T03:57:20;17.00;99.90
22185;DHT22;11258;52.516;13.318;2023-08-06T03:59:46;17.10;99.90
22185;DHT22;11258;52.516;13.318;2023-08-06T04:02:12;17.00;99.90
22185;DHT22;11258;52.516;13.318;2023-08-06T04:04:37;17.10;99.90
22185;DHT22;11258;52.516;13.318;2023-08-06T04:07:03;17.10;99.90
22185;DHT22;11258;52.516;13.318;2023-08-06T04:09:29;17.20;99.90
22185;DHT22;11258;52.516;13.318;2023-08-06T04:11:55;17.00;99.90
22185;DHT22;11258;52.516;13.318;2023-08-06T04:14:21;16.90;99.90
22185;DHT22;11258;52.516;13.318;2023-08-06T04:16:47;16.90;99.90
22185;DHT22;11258;52.516;13.318;2023-08-06T04:19:12;16.90;99.90
22185;DHT22;11258;52.516;13.318;2023-08-06T04:21:38;16.90;99.90
22185;DHT22;11258;52.516;13.318;2023-08-06T04:24:03;17.10;99.90
22185;DHT22;11258;52.516;13.318;2023-08-06T04:26:29;17.00;99.90
22185;DHT22;11258;52.516;13.318;2023-08-06T04:28:55;17.10;99.90
22185;DHT22;11258;52.516;13.318;2023-08-06T04:31:21;17.00;99.90
22185;DHT22;11258;52.516;13.318;2023-08-06T04:33:47;16.90;99.90
22185;DHT22;11258;52.516;13.318;2023-08-06T04:36:13;17.10;99.90
22185;DHT22;11258;52.516;13.318;2023-08-06T04:38:38;17.10;99.90
22185;DHT22;11258;52.516;13.318;2023-08-06T04:41:06;17.00;99.90
22185;DHT22;11258;52.516;13.318;2023-08-06T04:43:32;17.00;99.90
22185;DHT22;11258;52.516;13.318;2023-08-06T04:45:58;17.10;99.90
22185;DHT22;11258;52.516;13.318;2023-08-06T04:48:23;17.10;99.90
22185;DHT22;11258;52.516;13.318;2023-08-06T04:50:50;17.30;99.90
22185;DHT22;11258;52.516;13.318;2023-08-06T04:53:16;17.20;99.90
22185;DHT22;11258;52.516;13.318;2023-08-06T04:55:42;17.00;99.90
22185;DHT22;11258;52.516;13.318;2023-08-06T04:58:09;17.00;99.90
22185;DHT22;11258;52.516;13.318;2023-08-06T05:00:35;17.20;99.90
22185;DHT22;11258;52.516;13.318;2023-08-06T05:03:01;17.40;99.90
22185;DHT22;11258;52.516;13.318;2023-08-06T05:05:28;17.30;99.90
22185;DHT22;11258;52.516;13.318;2023-08-06T05:07:55;17.30;99.90
22185;DHT22;11258;52.516;13.318;2023-08-06T05:10:23;17.30;99.90
22185;DHT22;11258;52.516;13.318;2023-08-06T05:12:49;17.40;99.90
22185;DHT22;11258;52.516;13.318;2023-08-06T05:15:15;17.40;99.90
22185;DHT22;11258;52.516;13.318;2023-08-06T05:17:40;17.30;99.90
22185;DHT22;11258;52.516;13.318;2023-08-06T05:20:06;17.40;99.90
22185;DHT22;11258;52.516;13.318;2023-08-06T05:22:32;17.50;99.90
22185;DHT22;11258;52.516;13.318;2023-08-06T05:24:58;17.60;99.90
22185;DHT22;11258;52.516;13.318;2023-08-06T05:27:23;17.70;99.90
22185;DHT22;11258;52.516;13.318;2023-08-06T05:29:49;17.70;99.90
22185;DHT22;11258;52.516;13.318;2023-08-06T05:32:15;17.70;99.90
22185;DHT22;11258;52.516;13.318;2023-08-06T05:34:40;17.80;99.90
22185;DHT22;11258;52.516;13.318;2023-08-06T05:37:07;17.80;99.90
22185;DHT22;11258;52.516;13.318;2023-08-06T05:39:32;17.70;99.90
22185;DHT22;11258;52.516;13.318;2023-08-06T05:41:58;17.60;99.90
22185;DHT22;11258;52.516;13.318;2023-08-06T05:44:23;17.60;99.90
22185;DHT22;11258;52.516;13.318;2023-08-06T05:46:49;17.60;99.90
22185;DHT22;11258;52.516;13.318;2023-08-06T05:49:15;17.70;99.90
22185;DHT22;11258;52.516;13.318;2023-08-06T05:51:41;17.60;99.90
22185;DHT22;11258;52.516;13.318;2023-08-06T05:54:07;17.60;99.90
22185;DHT22;11258;52.516;13.318;2023-08-06T05:56:33;17.50;99.90
22185;DHT22;11258;52.516;13.318;2023-08-06T05:58:59;17.60;99.90
22185;DHT22;11258;52.516;13.318;2023-08-06T06:01:24;17.60;99.90
22185;DHT22;11258;52.516;13.318;2023-08-06T06:03:50;17.70;99.90
22185;DHT22;11258;52.516;13.318;2023-08-06T06:06:15;17.80;99.90
22185;DHT22;11258;52.516;13.318;2023-08-06T06:08:42;17.80;99.90
22185;DHT22;11258;52.516;13.318;2023-08-06T06:11:07;17.70;99.90
22185;DHT22;11258;52.516;13.318;2023-08-06T06:13:33;17.60;99.90
22185;DHT22;11258;52.516;13.318;2023-08-06T06:15:58;17.60;99.90
22185;DHT22;11258;52.516;13.318;2023-08-06T06:18:24;17.60;99.90
22185;DHT22;11258;52.516;13.318;2023-08-06T06:20:50;17.60;99.90
22185;DHT22;11258;52.516;13.318;2023-08-06T06:23:15;17.60;99.90
22185;DHT22;11258;52.516;13.318;2023-08-06T06:25:48;17.80;99.90
22185;DHT22;11258;52.516;13.318;2023-08-06T06:28:14;17.90;99.90
22185;DHT22;11258;52.516;13.318;2023-08-06T06:30:41;17.90;99.90
22185;DHT22;11258;52.516;13.318;2023-08-06T06:33:07;17.80;99.90
22185;DHT22;11258;52.516;13.318;2023-08-06T06:35:33;17.80;99.90
22185;DHT22;11258;52.516;13.318;2023-08-06T06:37:59;17.80;99.90
22185;DHT22;11258;52.516;13.318;2023-08-06T06:40:25;18.00;99.90
22185;DHT22;11258;52.516;13.318;2023-08-06T06:42:51;18.10;99.90
22185;DHT22;11258;52.516;13.318;2023-08-06T06:45:16;18.20;99.90
22185;DHT22;11258;52.516;13.318;2023-08-06T06:47:42;18.30;99.90
22185;DHT22;11258;52.516;13.318;2023-08-06T06:50:08;18.30;99.90
22185;DHT22;11258;52.516;13.318;2023-08-06T06:52:34;18.30;99.90
22185;DHT22;11258;52.516;13.318;2023-08-06T06:55:00;18.30;99.90
22185;DHT22;11258;52.516;13.318;2023-08-06T06:57:26;18.40;99.90
22185;DHT22;11258;52.516;13.318;2023-08-06T06:59:51;18.50;99.90
22185;DHT22;11258;52.516;13.318;2023-08-06T07:02:17;18.50;99.90
22185;DHT22;11258;52.516;13.318;2023-08-06T07:04:43;18.50;99.90
22185;DHT22;11258;52.516;13.318;2023-08-06T07:07:08;18.50;99.90
22185;DHT22;11258;52.516;13.318;2023-08-06T07:09:34;18.60;99.90
22185;DHT22;11258;52.516;13.318;2023-08-06T07:12:00;18.70;99.90
22185;DHT22;11258;52.516;13.318;2023-08-06T07:14:28;18.60;99.90
22185;DHT22;11258;52.516;13.318;2023-08-06T07:16:54;18.80;99.90
22185;DHT22;11258;52.516;13.318;2023-08-06T07:19:19;18.90;99.90
22185;DHT22;11258;52.516;13.318;2023-08-06T07:21:45;19.00;99.90
22185;DHT22;11258;52.516;13.318;2023-08-06T07:24:11;19.00;99.90
22185;DHT22;11258;52.516;13.318;2023-08-06T07:26:37;19.00;99.90
22185;DHT22;11258;52.516;13.318;2023-08-06T07:29:03;19.00;99.90
22185;DHT22;11258;52.516;13.318;2023-08-06T07:31:28;19.00;99.90
22185;DHT22;11258;52.516;13.318;2023-08-06T07:33:54;19.00;99.90
22185;DHT22;11258;52.516;13.318;2023-08-06T07:36:20;18.90;99.90
22185;DHT22;11258;52.516;13.318;2023-08-06T07:38:46;18.80;99.90
22185;DHT22;11258;52.516;13.318;2023-08-06T07:41:11;18.70;99.90
22185;DHT22;11258;52.516;13.318;2023-08-06T07:43:37;18.70;99.90
22185;DHT22;11258;52.516;13.318;2023-08-06T07:46:03;18.60;99.90
22185;DHT22;11258;52.516;13.318;2023-08-06T07:48:29;18.60;99.90
22185;DHT22;11258;52.516;13.318;2023-08-06T07:50:55;18.80;99.90
22185;DHT22;11258;52.516;13.318;2023-08-06T07:53:25;18.70;99.90
22185;DHT22;11258;52.516;13.318;2023-08-06T07:55:54;18.80;99.90
22185;DHT22;11258;52.516;13.318;2023-08-06T07:58:20;18.90;99.90
22185;DHT22;11258;52.516;13.318;2023-08-06T08:00:46;18.90;99.90
22185;DHT22;11258;52.516;13.318;2023-08-06T08:03:13;19.00;99.90
22185;DHT22;11258;52.516;13.318;2023-08-06T08:05:40;19.10;99.90
22185;DHT22;11258;52.516;13.318;2023-08-06T08:08:06;19.10;99.90
22185;DHT22;11258;52.516;13.318;2023-08-06T08:10:32;19.20;99.90
22185;DHT22;11258;52.516;13.318;2023-08-06T08:12:58;19.30;99.90
22185;DHT22;11258;52.516;13.318;2023-08-06T08:15:24;19.40;99.90
22185;DHT22;11258;52.516;13.318;2023-08-06T08:17:52;19.30;99.90
22185;DHT22;11258;52.516;13.318;2023-08-06T08:20:17;19.50;99.90
22185;DHT22;11258;52.516;13.318;2023-08-06T08:22:43;19.50;99.90
22185;DHT22;11258;52.516;13.318;2023-08-06T08:25:09;19.50;99.90
22185;DHT22;11258;52.516;13.318;2023-08-06T08:27:34;19.60;99.90
22185;DHT22;11258;52.516;13.318;2023-08-06T08:30:00;19.60;99.90
22185;DHT22;11258;52.516;13.318;2023-08-06T08:32:26;19.50;99.90
22185;DHT22;11258;52.516;13.318;2023-08-06T08:34:51;19.60;99.90
22185;DHT22;11258;52.516;13.318;2023-08-06T08:37:17;19.70;99.90
22185;DHT22;11258;52.516;13.318;2023-08-06T08:39:42;19.60;99.90
22185;DHT22;11258;52.516;13.318;2023-08-06T08:42:09;19.60;99.90
22185;DHT22;11258;52.516;13.318;2023-08-06T08:44:36;19.60;99.90
22185;DHT22;11258;52.516;13.318;2023-08-06T08:47:06;19.60;99.90
22185;DHT22;11258;52.516;13.318;2023-08-06T08:49:32;19.60;99.90
22185;DHT22;11258;52.516;13.318;2023-08-06T08:52:02;19.60;99.90
22185;DHT22;11258;52.516;13.318;2023-08-06T08:54:28;19.50;99.90
22185;DHT22;11258;52.516;13.318;2023-08-06T08:56:56;19.40;99.90
22185;DHT22;11258;52.516;13.318;2023-08-06T08:59:22;19.50;99.90
22185;DHT22;11258;52.516;13.318;2023-08-06T09:01:48;19.60;99.90
22185;DHT22;11258;52.516;13.318;2023-08-06T09:04:17;19.70;99.90
22185;DHT22;11258;52.516;13.318;2023-08-06T09:06:46;19.70;99.90
22185;DHT22;11258;52.516;13.318;2023-08-06T09:09:15;19.90;99.90
22185;DHT22;11258;52.516;13.318;2023-08-06T09:11:43;19.90;99.90
22185;DHT22;11258;52.516;13.318;2023-08-06T09:14:11;19.90;99.90
22185;DHT22;11258;52.516;13.318;2023-08-06T09:16:36;19.80;99.90
22185;DHT22;11258;52.516;13.318;2023-08-06T09:19:09;19.80;99.90
22185;DHT22;11258;52.516;13.318;2023-08-06T09:21:39;19.90;99.90
22185;DHT22;11258;52.516;13.318;2023-08-06T09:24:12;19.90;99.90
22185;DHT22;11258;52.516;13.318;2023-08-06T09:26:44;19.80;99.90
22185;DHT22;11258;52.516;13.318;2023-08-06T09:29:10;20.00;99.90
22185;DHT22;11258;52.516;13.318;2023-08-06T09:31:48;20.10;99.90
22185;DHT22;11258;52.516;13.318;2023-08-06T09:34:19;20.20;99.90
22185;DHT22;11258;52.516;13.318;2023-08-06T09:36:49;20.10;99.90
22185;DHT22;11258;52.516;13.318;2023-08-06T09:39:20;20.10;99.90
22185;DHT22;11258;52.516;13.318;2023-08-06T09:41:46;20.10;99.90
22185;DHT22;11258;52.516;13.318;2023-08-06T09:44:22;20.10;99.90
22185;DHT22;11258;52.516;13.318;2023-08-06T09:46:55;20.10;99.90
22185;DHT22;11258;52.516;13.318;2023-08-06T09:51:58;20.20;99.90
22185;DHT22;11258;52.516;13.318;2023-08-06T09:54:26;20.30;99.90
22185;DHT22;11258;52.516;13.318;2023-08-06T09:56:53;20.20;99.90
22185;DHT22;11258;52.516;13.318;2023-08-06T09:59:19;20.10;99.90
22185;DHT22;11258;52.516;13.318;2023-08-06T10:01:45;20.20;99.90
22185;DHT22;11258;52.516;13.318;2023-08-06T10:04:13;20.40;99.90
22185;DHT22;11258;52.516;13.318;2023-08-06T10:06:42;20.30;99.90
22185;DHT22;11258;52.516;13.318;2023-08-06T10:09:08;20.30;99.90
22185;DHT22;11258;52.516;13.318;2023-08-06T10:11:36;20.10;99.90
22185;DHT22;11258;52.516;13.318;2023-08-06T10:14:11;19.90;99.90
22185;DHT22;11258;52.516;13.318;2023-08-06T10:16:39;19.70;99.90
22185;DHT22;11258;52.516;13.318;2023-08-06T10:19:07;19.70;99.90
22185;DHT22;11258;52.516;13.318;2023-08-06T10:21:34;19.70;99.90
22185;DHT22;11258;52.516;13.318;2023-08-06T10:23:59;19.60;99.90
22185;DHT22;11258;52.516;13.318;2023-08-06T10:26:28;19.60;99.90
22185;DHT22;11258;52.516;13.318;2023-08-06T10:28:54;19.60;99.90
22185;DHT22;11258;52.516;13.318;2023-08-06T10:31:20;19.60;99.90
22185;DHT22;11258;52.516;13.318;2023-08-06T10:33:47;19.50;99.90
22185;DHT22;11258;52.516;13.318;2023-08-06T10:36:14;19.60;99.90
22185;DHT22;11258;52.516;13.318;2023-08-06T10:38:50;19.60;99.90
22185;DHT22;11258;52.516;13.318;2023-08-06T10:41:36;19.60;99.90
22185;DHT22;11258;52.516;13.318;2023-08-06T10:44:09;19.70;99.90
22185;DHT22;11258;52.516;13.318;2023-08-06T10:46:35;19.90;99.90
22185;DHT22;11258;52.516;13.318;2023-08-06T10:49:01;19.90;99.90
22185;DHT22;11258;52.516;13.318;2023-08-06T10:51:27;19.90;99.90
22185;DHT22;11258;52.516;13.318;2023-08-06T10:53:53;19.80;99.90
22185;DHT22;11258;52.516;13.318;2023-08-06T10:56:23;19.80;99.90
22185;DHT22;11258;52.516;13.318;2023-08-06T10:58:51;19.60;99.90
22185;DHT22;11258;52.516;13.318;2023-08-06T11:01:17;19.60;99.90
22185;DHT22;11258;52.516;13.318;2023-08-06T11:03:45;19.60;99.90
22185;DHT22;11258;52.516;13.318;2023-08-06T11:06:16;19.50;99.90
22185;DHT22;11258;52.516;13.318;2023-08-06T11:08:48;19.40;99.90
22185;DHT22;11258;52.516;13.318;2023-08-06T11:11:15;19.40;99.90
22185;DHT22;11258;52.516;13.318;2023-08-06T11:13:43;19.50;99.90
22185;DHT22;11258;52.516;13.318;2023-08-06T11:16:10;19.40;99.90
22185;DHT22;11258;52.516;13.318;2023-08-06T11:18:36;19.50;99.90
22185;DHT22;11258;52.516;13.318;2023-08-06T11:21:02;19.60;99.90
22185;DHT22;11258;52.516;13.318;2023-08-06T11:23:28;19.60;99.90
22185;DHT22;11258;52.516;13.318;2023-08-06T11:25:55;19.60;99.90
22185;DHT22;11258;52.516;13.318;2023-08-06T11:28:21;19.60;99.90
22185;DHT22;11258;52.516;13.318;2023-08-06T11:30:48;19.40;99.90
22185;DHT22;11258;52.516;13.318;2023-08-06T11:33:14;19.50;99.90
22185;DHT22;11258;52.516;13.318;2023-08-06T11:35:40;19.40;99.90
22185;DHT22;11258;52.516;13.318;2023-08-06T11:38:06;19.50;99.90
22185;DHT22;11258;52.516;13.318;2023-08-06T11:40:32;19.50;99.90
22185;DHT22;11258;52.516;13.318;2023-08-06T11:42:58;19.50;99.90
22185;DHT22;11258;52.516;13.318;2023-08-06T11:45:24;19.50;99.90
22185;DHT22;11258;52.516;13.318;2023-08-06T11:47:51;19.40;99.90
22185;DHT22;11258;52.516;13.318;2023-08-06T11:50:24;19.30;99.90
22185;DHT22;11258;52.516;13.318;2023-08-06T11:52:59;19.10;99.90
22185;DHT22;11258;52.516;13.318;2023-08-06T11:55:27;19.00;99.90
22185;DHT22;11258;52.516;13.318;2023-08-06T11:57:54;18.80;99.90
22185;DHT22;11258;52.516;13.318;2023-08-06T12:00:20;18.80;99.90
22185;DHT22;11258;52.516;13.318;2023-08-06T12:02:49;18.80;99.90
22185;DHT22;11258;52.516;13.318;2023-08-06T12:05:17;18.70;99.90
22185;DHT22;11258;52.516;13.318;2023-08-06T12:07:48;18.80;99.90
22185;DHT22;11258;52.516;13.318;2023-08-06T12:10:15;18.80;99.90
22185;DHT22;11258;52.516;13.318;2023-08-06T12:12:41;18.70;99.90
22185;DHT22;11258;52.516;13.318;2023-08-06T12:15:08;18.60;99.90
22185;DHT22;11258;52.516;13.318;2023-08-06T12:17:35;18.50;99.90
22185;DHT22;11258;52.516;13.318;2023-08-06T12:20:01;18.80;99.90
22185;DHT22;11258;52.516;13.318;2023-08-06T12:22:27;18.90;99.90
22185;DHT22;11258;52.516;13.318;2023-08-06T12:24:53;18.80;99.90
22185;DHT22;11258;52.516;13.318;2023-08-06T12:27:19;18.80;99.90
22185;DHT22;11258;52.516;13.318;2023-08-06T12:29:47;18.90;99.90
22185;DHT22;11258;52.516;13.318;2023-08-06T12:32:13;19.10;99.90
22185;DHT22;11258;52.516;13.318;2023-08-06T12:34:40;19.20;99.90
22185;DHT22;11258;52.516;13.318;2023-08-06T12:37:06;19.40;99.90
22185;DHT22;11258;52.516;13.318;2023-08-06T12:39:35;19.40;99.90
22185;DHT22;11258;52.516;13.318;2023-08-06T12:42:02;19.60;99.90
22185;DHT22;11258;52.516;13.318;2023-08-06T12:44:27;19.50;99.90
22185;DHT22;11258;52.516;13.318;2023-08-06T12:46:53;19.40;99.90
22185;DHT22;11258;52.516;13.318;2023-08-06T12:49:19;19.50;99.90
22185;DHT22;11258;52.516;13.318;2023-08-06T12:51:49;19.40;99.90
22185;DHT22;11258;52.516;13.318;2023-08-06T12:54:16;19.50;99.90
22185;DHT22;11258;52.516;13.318;2023-08-06T12:56:43;19.50;99.90
22185;DHT22;11258;52.516;13.318;2023-08-06T12:59:09;19.40;99.90
22185;DHT22;11258;52.516;13.318;2023-08-06T13:01:35;19.50;99.90
22185;DHT22;11258;52.516;13.318;2023-08-06T13:04:00;19.30;99.90
22185;DHT22;11258;52.516;13.318;2023-08-06T13:06:26;19.40;99.90
22185;DHT22;11258;52.516;13.318;2023-08-06T13:08:52;19.40;99.90
22185;DHT22;11258;52.516;13.318;2023-08-06T13:11:17;19.30;99.90
22185;DHT22;11258;52.516;13.318;2023-08-06T13:13:44;19.20;99.90
22185;DHT22;11258;52.516;13.318;2023-08-06T13:16:10;19.20;99.90
22185;DHT22;11258;52.516;13.318;2023-08-06T13:18:35;19.20;99.90
22185;DHT22;11258;52.516;13.318;2023-08-06T13:21:01;19.10;99.90
22185;DHT22;11258;52.516;13.318;2023-08-06T13:23:27;19.10;99.90
22185;DHT22;11258;52.516;13.318;2023-08-06T13:25:53;19.10;99.90
22185;DHT22;11258;52.516;13.318;2023-08-06T13:28:19;19.10;99.90
22185;DHT22;11258;52.516;13.318;2023-08-06T13:30:45;19.10;99.90
22185;DHT22;11258;52.516;13.318;2023-08-06T13:33:11;19.20;99.90
22185;DHT22;11258;52.516;13.318;2023-08-06T13:35:37;19.20;99.90
22185;DHT22;11258;52.516;13.318;2023-08-06T13:38:03;19.20;99.90
22185;DHT22;11258;52.516;13.318;2023-08-06T13:40:29;19.30;99.90
22185;DHT22;11258;52.516;13.318;2023-08-06T13:42:55;19.30;99.90
22185;DHT22;11258;52.516;13.318;2023-08-06T13:45:21;19.30;99.90
22185;DHT22;11258;52.516;13.318;2023-08-06T13:47:47;19.40;99.90
22185;DHT22;11258;52.516;13.318;2023-08-06T13:50:13;19.30;99.90
22185;DHT22;11258;52.516;13.318;2023-08-06T13:52:39;19.40;99.90
22185;DHT22;11258;52.516;13.318;2023-08-06T13:55:05;19.40;99.90
22185;DHT22;11258;52.516;13.318;2023-08-06T13:57:31;19.40;99.90
22185;DHT22;11258;52.516;13.318;2023-08-06T13:59:56;19.50;99.90
22185;DHT22;11258;52.516;13.318;2023-08-06T14:02:22;19.40;99.90
22185;DHT22;11258;52.516;13.318;2023-08-06T14:04:48;19.20;99.90
22185;DHT22;11258;52.516;13.318;2023-08-06T14:07:13;19.30;99.90
22185;DHT22;11258;52.516;13.318;2023-08-06T14:09:39;19.20;99.90
22185;DHT22;11258;52.516;13.318;2023-08-06T14:12:06;19.20;99.90
22185;DHT22;11258;52.516;13.318;2023-08-06T14:14:31;19.10;99.90
22185;DHT22;11258;52.516;13.318;2023-08-06T14:16:57;19.00;99.90
22185;DHT22;11258;52.516;13.318;2023-08-06T14:19:23;18.90;99.90
22185;DHT22;11258;52.516;13.318;2023-08-06T14:21:49;18.90;99.90
22185;DHT22;11258;52.516;13.318;2023-08-06T14:24:14;18.90;99.90
22185;DHT22;11258;52.516;13.318;2023-08-06T14:26:40;18.80;99.90
22185;DHT22;11258;52.516;13.318;2023-08-06T14:29:06;18.80;99.90
22185;DHT22;11258;52.516;13.318;2023-08-06T14:31:32;18.70;99.90
22185;DHT22;11258;52.516;13.318;2023-08-06T14:33:57;18.60;99.90
22185;DHT22;11258;52.516;13.318;2023-08-06T14:36:23;18.60;99.90
22185;DHT22;11258;52.516;13.318;2023-08-06T14:38:48;18.60;99.90
22185;DHT22;11258;52.516;13.318;2023-08-06T14:41:14;18.60;99.90
22185;DHT22;11258;52.516;13.318;2023-08-06T14:43:40;18.60;99.90
22185;DHT22;11258;52.516;13.318;2023-08-06T14:46:05;18.70;99.90
22185;DHT22;11258;52.516;13.318;2023-08-06T14:48:31;18.70;99.90
22185;DHT22;11258;52.516;13.318;2023-08-06T14:50:56;18.70;99.90
22185;DHT22;11258;52.516;13.318;2023-08-06T14:53:22;18.80;99.90
22185;DHT22;11258;52.516;13.318;2023-08-06T14:55:48;18.80;99.90
22185;DHT22;11258;52.516;13.318;2023-08-06T14:58:14;18.60;99.90
22185;DHT22;11258;52.516;13.318;2023-08-06T15:00:39;18.70;99.90
22185;DHT22;11258;52.516;13.318;2023-08-06T15:03:06;18.70;99.90
22185;DHT22;11258;52.516;13.318;2023-08-06T15:05:32;18.80;99.90
22185;DHT22;11258;52.516;13.318;2023-08-06T15:07:58;18.90;99.90
22185;DHT22;11258;52.516;13.318;2023-08-06T15:10:23;18.80;99.90
22185;DHT22;11258;52.516;13.318;2023-08-06T15:12:49;18.80;99.90
22185;DHT22;11258;52.516;13.318;2023-08-06T15:15:14;18.90;99.90
22185;DHT22;11258;52.516;13.318;2023-08-06T15:17:40;18.90;99.90
22185;DHT22;11258;52.516;13.318;2023-08-06T15:20:07;18.90;99.90
22185;DHT22;11258;52.516;13.318;2023-08-06T15:22:33;18.90;99.90